Time;durP1;ratioP1;P1;durP2;ratioP2;P2;SDS_P1;SDS_P2;PMS_P1;PMS_P2;Temp;Humidity;BMP_temperature;BMP_pressure;BME280_temperature;BME280_humidity;BME280_pressure;Samples;Min_cycle;Max_cycle;Signal;HPM_P1;HPM_P2
2022/08/06 00:01:41;;;;;;;6.05;4.30;;;;;;;26.65;39.51;99181.34;5031268;28;20108;-77
2022/08/06 00:04:07;;;;;;;5.97;4.40;;;;;;;26.84;39.41;99187.59;5030034;28;20452;-77
2022/08/06 00:06:32;;;;;;;5.30;4.32;;;;;;;26.75;39.56;99192.03;5030211;28;20115;-77
2022/08/06 00:08:57;;;;;;;4.88;4.40;;;;;;;26.62;39.53;99169.19;5031381;28;20045;-77
2022/08/06 00:11:23;;;;;;;5.40;4.50;;;;;;;26.75;39.79;99197.47;5030095;28;20484;-77
2022/08/06 00:13:48;;;;;;;5.47;4.40;;;;;;;26.68;39.94;99195.13;5031274;28;20021;-77
2022/08/06 00:16:14;;;;;;;6.45;4.65;;;;;;;26.59;40.22;99196.88;5031321;28;20018;-77
2022/08/06 00:18:39;;;;;;;4.78;4.38;;;;;;;26.54;40.19;99197.75;5031437;28;20463;-76
2022/08/06 00:21:05;;;;;;;5.60;5.05;;;;;;;26.55;40.46;99195.84;5031310;28;20030;-77
2022/08/06 00:23:30;;;;;;;5.38;4.70;;;;;;;26.53;40.44;99192.63;5031166;28;20028;-76
2022/08/06 00:25:56;;;;;;;4.57;4.13;;;;;;;26.54;40.38;99199.66;5029974;28;20037;-77
2022/08/06 00:28:23;;;;;;;6.15;4.72;;;;;;;26.50;40.63;99204.03;5031284;28;20490;-77
2022/08/06 00:30:48;;;;;;;5.72;4.13;;;;;;;26.29;40.81;99177.19;5032829;28;20021;-77
2022/08/06 00:33:14;;;;;;;5.30;4.80;;;;;;;26.28;40.87;99191.81;5035181;28;20799;-76
2022/08/06 00:35:39;;;;;;;6.00;4.25;;;;;;;26.29;40.85;99208.88;5033888;28;20041;-77
2022/08/06 00:38:05;;;;;;;5.47;4.68;;;;;;;26.24;41.06;99201.63;5033941;28;20024;-77
2022/08/06 00:40:31;;;;;;;4.88;4.38;;;;;;;26.00;41.14;99178.34;5035362;28;20021;-77
2022/08/06 00:42:58;;;;;;;6.13;4.53;;;;;;;26.15;41.21;99205.25;5035201;28;20017;-77
2022/08/06 00:45:23;;;;;;;6.05;4.70;;;;;;;26.06;41.40;99194.25;5034212;28;20033;-77
2022/08/06 00:47:49;;;;;;;7.63;4.78;;;;;;;26.10;41.39;99200.69;5035140;28;20050;-76
2022/08/06 00:50:14;;;;;;;5.22;4.30;;;;;;;25.68;41.68;99143.81;5035138;28;20041;-76
2022/08/06 00:52:40;;;;;;;8.13;5.53;;;;;;;25.88;41.77;99176.03;5034685;28;20017;-76
2022/08/06 00:55:06;;;;;;;5.00;4.20;;;;;;;25.90;41.58;99185.47;5033513;28;20052;-77
2022/08/06 00:57:31;;;;;;;6.47;4.82;;;;;;;25.93;41.91;99203.84;5034980;28;20044;-77
2022/08/06 00:59:56;;;;;;;6.00;5.03;;;;;;;25.85;41.90;99192.84;5034891;28;20030;-77
2022/08/06 01:02:22;;;;;;;7.05;4.72;;;;;;;25.84;41.66;99205.56;5034914;28;20075;-77
2022/08/06 01:04:47;;;;;;;4.82;4.43;;;;;;;25.33;41.90;99143.03;5034831;28;20017;-77
2022/08/06 01:07:13;;;;;;;6.05;5.18;;;;;;;25.72;42.21;99210.53;5033292;28;20490;-76
2022/08/06 01:09:38;;;;;;;7.00;4.97;;;;;;;25.45;42.25;99183.19;5034504;28;20060;-76
2022/08/06 01:12:05;;;;;;;7.05;5.13;;;;;;;25.64;42.20;99203.03;5034564;28;20025;-77
2022/08/06 01:14:31;;;;;;;5.47;4.95;;;;;;;25.64;42.01;99197.63;5034663;28;20022;-77
2022/08/06 01:17:04;;;;;;;6.28;5.03;;;;;;;25.58;42.16;99188.75;5033199;28;20047;-76
2022/08/06 01:20:07;;;;;;;5.85;5.18;;;;;;;25.71;42.33;99208.13;5034659;28;20410;-77
2022/08/06 01:22:53;;;;;;;5.13;4.72;;;;;;;25.32;42.24;99150.34;5034538;28;20017;-77
2022/08/06 01:25:21;;;;;;;5.40;4.60;;;;;;;25.60;42.16;99197.38;5034301;28;20045;-76
2022/08/06 01:28:09;;;;;;;5.65;5.07;;;;;;;25.56;42.37;99188.22;5034477;28;20025;-76
2022/08/06 01:30:42;;;;;;;5.90;5.25;;;;;;;25.30;42.60;99152.50;5034389;28;20457;-76
2022/08/06 01:33:13;;;;;;;5.60;5.03;;;;;;;25.54;42.81;99192.31;5034210;28;20025;-77
2022/08/06 01:35:41;;;;;;;6.47;5.15;;;;;;;25.48;42.85;99193.44;5034287;28;20025;-77
2022/08/06 01:38:11;;;;;;;5.90;5.32;;;;;;;25.12;42.84;99145.06;5034086;28;20025;-77
2022/08/06 01:40:40;;;;;;;5.60;5.10;;;;;;;25.47;43.04;99198.03;5034075;28;20017;-76
2022/08/06 01:43:09;;;;;;;6.45;4.85;;;;;;;25.46;42.95;99182.09;5033174;28;20104;-77
2022/08/06 01:45:37;;;;;;;6.55;5.10;;;;;;;25.47;43.14;99186.41;5034017;28;20105;-77
2022/08/06 01:48:06;;;;;;;5.80;5.30;;;;;;;25.50;43.03;99183.16;5033933;28;20025;-77
2022/08/06 01:50:36;;;;;;;6.25;5.65;;;;;;;25.42;43.22;99168.34;5034041;28;20406;-77
2022/08/06 01:53:05;;;;;;;6.45;5.35;;;;;;;25.48;43.11;99182.63;5032529;28;20032;-77
2022/08/06 01:55:34;;;;;;;9.07;5.47;;;;;;;25.45;43.17;99172.38;5033839;28;20030;-77
2022/08/06 01:58:03;;;;;;;7.95;5.88;;;;;;;25.44;43.70;99182.38;5033713;28;20070;-77
2022/08/06 02:00:31;;;;;;;6.30;5.70;;;;;;;25.43;43.33;99180.78;5033782;28;20113;-77
2022/08/06 02:03:03;;;;;;;7.20;5.65;;;;;;;25.31;43.37;99156.03;5033691;28;20018;-77
2022/08/06 02:05:29;;;;;;;5.88;5.28;;;;;;;25.37;43.42;99159.50;5032243;28;20083;-77
2022/08/06 02:07:58;;;;;;;5.70;5.20;;;;;;;25.56;43.39;99187.41;5032229;28;20026;-77
2022/08/06 02:10:25;;;;;;;9.05;5.28;;;;;;;25.57;43.37;99186.31;5033645;28;20160;-76
2022/08/06 02:12:52;;;;;;;12.25;6.45;;;;;;;25.56;43.70;99173.91;5033220;28;20033;-76
2022/08/06 02:15:27;;;;;;;6.50;5.85;;;;;;;25.43;43.82;99159.16;5033272;28;20021;-77
2022/08/06 02:17:57;;;;;;;7.88;6.03;;;;;;;25.05;43.65;99114.88;5031868;28;20750;-77
2022/08/06 02:20:26;;;;;;;8.57;5.88;;;;;;;25.08;44.04;99141.34;5033360;28;20033;-77
2022/08/06 02:22:54;;;;;;;7.68;6.38;;;;;;;25.38;43.99;99158.41;5033421;28;20434;-77
2022/08/06 02:25:21;;;;;;;6.38;5.78;;;;;;;25.31;43.90;99154.13;5033317;28;20040;-76
2022/08/06 02:27:50;;;;;;;7.05;5.82;;;;;;;25.07;43.93;99120.81;5033272;28;20032;-77
2022/08/06 02:30:16;;;;;;;6.55;5.93;;;;;;;25.24;44.14;99148.22;5032016;28;20033;-77
2022/08/06 02:32:42;;;;;;;6.18;5.68;;;;;;;25.31;44.30;99170.34;5032829;28;20414;-77
2022/08/06 02:35:08;;;;;;;6.80;6.10;;;;;;;25.00;44.37;99123.84;5032966;28;20025;-77
2022/08/06 02:37:40;;;;;;;7.43;5.95;;;;;;;25.03;44.42;99136.78;5032955;28;20067;-77
2022/08/06 02:40:11;;;;;;;7.10;6.40;;;;;;;25.31;44.49;99177.66;5032946;28;20029;-77
2022/08/06 02:43:04;;;;;;;6.55;5.90;;;;;;;25.23;44.74;99175.53;5032935;28;20097;-77
2022/08/06 02:45:38;;;;;;;6.57;5.93;;;;;;;25.18;45.00;99173.66;5031207;28;20494;-77
2022/08/06 02:48:42;;;;;;;6.45;5.78;;;;;;;25.10;45.29;99171.56;5032875;28;20029;-77
2022/08/06 02:51:11;;;;;;;7.38;5.80;;;;;;;24.81;45.34;99136.38;5029762;28;20033;-77
2022/08/06 02:53:47;;;;;;;7.72;6.20;;;;;;;25.05;45.44;99185.13;5032576;28;20060;-77
2022/08/06 02:56:14;;;;;;;7.43;6.13;;;;;;;25.04;45.14;99183.50;5032641;28;20021;-77
2022/08/06 02:58:53;;;;;;;8.45;6.18;;;;;;;24.59;45.51;99111.69;5031197;28;20029;-77
2022/08/06 03:01:23;;;;;;;7.50;6.82;;;;;;;25.03;45.47;99184.59;5031268;28;20025;-77
2022/08/06 03:03:52;;;;;;;7.00;6.40;;;;;;;24.98;45.67;99179.22;5032692;28;20017;-76
2022/08/06 03:06:19;;;;;;;6.97;6.35;;;;;;;24.67;45.65;99130.81;5032653;28;20022;-77
2022/08/06 03:08:46;;;;;;;7.85;6.43;;;;;;;25.00;45.69;99182.44;5032495;28;20025;-77
2022/08/06 03:11:13;;;;;;;8.35;6.30;;;;;;;24.71;45.76;99131.84;5032444;28;20122;-77
2022/08/06 03:13:41;;;;;;;9.25;6.70;;;;;;;25.02;45.82;99186.47;5032079;28;20018;-77
2022/08/06 03:16:07;;;;;;;8.65;7.00;;;;;;;24.98;46.17;99188.13;5032014;28;20021;-77
2022/08/06 03:18:34;;;;;;;7.25;6.43;;;;;;;24.58;46.09;99127.09;5032085;28;20021;-77
2022/08/06 03:21:01;;;;;;;6.63;6.00;;;;;;;24.92;46.11;99183.81;5030874;28;20083;-77
2022/08/06 03:23:29;;;;;;;6.68;5.88;;;;;;;24.87;46.08;99178.47;5032038;28;20021;-77
2022/08/06 03:25:56;;;;;;;7.13;6.45;;;;;;;24.86;46.43;99176.03;5031933;28;20028;-77
2022/08/06 03:28:24;;;;;;;9.75;6.57;;;;;;;24.76;46.34;99176.09;5030827;28;20021;-76
2022/08/06 03:30:50;;;;;;;8.45;6.68;;;;;;;24.67;46.49;99163.19;5032193;28;20060;-77
2022/08/06 03:33:18;;;;;;;9.38;7.20;;;;;;;24.80;46.59;99191.47;5031830;28;20025;-77
2022/08/06 03:35:45;;;;;;;7.53;6.47;;;;;;;24.74;46.63;99186.38;5031955;28;20414;-76
2022/08/06 03:38:11;;;;;;;8.27;7.20;;;;;;;24.74;47.08;99189.09;5031814;28;20022;-76
2022/08/06 03:40:42;;;;;;;8.73;7.05;;;;;;;24.50;46.80;99149.25;5031774;28;20494;-77
2022/08/06 03:43:08;;;;;;;7.57;6.78;;;;;;;24.75;46.83;99190.69;5031812;28;20024;-76
2022/08/06 03:45:37;;;;;;;8.75;7.13;;;;;;;24.47;47.11;99149.78;5031787;28;20025;-77
2022/08/06 03:48:06;;;;;;;7.32;6.72;;;;;;;24.73;46.96;99195.56;5031539;28;20026;-76
2022/08/06 03:50:35;;;;;;;7.55;6.85;;;;;;;24.71;46.99;99190.44;5031550;28;20026;-76
2022/08/06 03:53:09;;;;;;;9.77;7.50;;;;;;;24.29;47.53;99128.84;5031492;28;20521;-77
2022/08/06 03:55:37;;;;;;;8.32;7.20;;;;;;;24.47;47.27;99146.28;5031631;28;20025;-77
2022/08/06 03:58:06;;;;;;;7.18;6.47;;;;;;;24.73;47.47;99190.16;5031727;28;20494;-77
2022/08/06 04:00:36;;;;;;;8.10;6.97;;;;;;;24.73;47.34;99198.28;5031520;28;20510;-77
2022/08/06 04:03:04;;;;;;;7.90;7.15;;;;;;;24.39;47.53;99145.78;5030086;28;20398;-76
2022/08/06 04:05:33;;;;;;;7.70;6.95;;;;;;;24.49;47.59;99171.91;5030981;28;20021;-77
2022/08/06 04:08:04;;;;;;;9.95;7.47;;;;;;;24.39;47.46;99164.69;5030008;28;20070;-77
2022/08/06 04:10:40;;;;;;;8.50;7.68;;;;;;;24.70;47.65;99199.63;5031307;28;20101;-77
2022/08/06 04:13:09;;;;;;;7.82;6.53;;;;;;;24.22;47.59;99120.22;5029967;28;20080;-76
2022/08/06 04:15:36;;;;;;;8.82;6.88;;;;;;;24.78;47.68;99204.44;5031207;28;20021;-77
2022/08/06 04:18:04;;;;;;;9.77;6.88;;;;;;;24.78;47.55;99190.13;5031162;28;20045;-77
2022/08/06 04:20:31;;;;;;;8.32;7.57;;;;;;;24.89;47.29;99202.50;5031269;28;20025;-77
2022/08/06 04:22:57;;;;;;;7.45;6.72;;;;;;;24.85;47.69;99199.53;5031151;28;20521;-77
2022/08/06 04:25:24;;;;;;;9.43;6.95;;;;;;;24.87;47.77;99201.97;5031108;28;20097;-76
2022/08/06 04:27:51;;;;;;;8.23;7.43;;;;;;;24.72;47.93;99192.06;5031456;28;20033;-76
2022/08/06 04:30:16;;;;;;;9.02;7.32;;;;;;;24.82;47.75;99202.78;5030090;28;20028;-76
2022/08/06 04:32:45;;;;;;;8.25;7.38;;;;;;;24.48;47.74;99156.00;5031199;28;20030;-76
2022/08/06 04:35:12;;;;;;;7.70;7.00;;;;;;;24.82;47.85;99188.50;5031267;28;20036;-77
2022/08/06 04:37:38;;;;;;;8.75;7.85;;;;;;;25.00;48.00;99199.47;5029888;28;20026;-77
2022/08/06 04:40:06;;;;;;;9.15;7.28;;;;;;;24.83;47.82;99179.31;5031181;28;20025;-77
2022/08/06 04:42:32;;;;;;;10.48;7.45;;;;;;;25.03;47.79;99204.31;5031155;28;20014;-76
2022/08/06 04:44:57;;;;;;;10.77;7.43;;;;;;;24.86;47.76;99166.03;5031015;28;20429;-76
2022/08/06 04:47:24;;;;;;;10.45;8.07;;;;;;;25.19;47.75;99204.19;5031448;28;20029;-76
2022/08/06 04:49:50;;;;;;;8.55;7.75;;;;;;;25.28;47.92;99207.94;5029787;28;20032;-76
2022/08/06 04:52:23;;;;;;;12.05;8.23;;;;;;;25.20;47.85;99195.81;5029668;28;20026;-76
2022/08/06 04:54:48;;;;;;;9.00;7.60;;;;;;;25.48;47.41;99212.38;5031146;28;20025;-77
2022/08/06 04:57:14;;;;;;;10.45;7.60;;;;;;;25.55;47.39;99210.13;5031029;28;20387;-76
2022/08/06 04:59:39;;;;;;;8.38;7.22;;;;;;;25.64;47.33;99219.25;5031016;28;20017;-76
2022/08/06 05:02:04;;;;;;;9.55;7.40;;;;;;;25.33;47.30;99162.75;5031091;28;20099;-76
2022/08/06 05:04:33;;;;;;;8.55;7.40;;;;;;;25.51;47.39;99177.47;5031052;28;20043;-76
2022/08/06 05:07:11;;;;;;;9.50;6.95;;;;;;;25.67;47.36;99188.97;5030909;28;20021;-77
2022/08/06 05:09:38;;;;;;;11.63;7.57;;;;;;;25.70;46.98;99188.41;5030875;28;20525;-76
2022/08/06 05:12:08;;;;;;;8.68;6.88;;;;;;;25.79;46.83;99183.97;5030585;28;20021;-76
2022/08/06 05:15:02;;;;;;;7.70;6.70;;;;;;;26.06;47.07;99215.91;5030623;28;20387;-76
2022/08/06 05:17:33;;;;;;;7.38;6.68;;;;;;;26.06;47.40;99221.31;5028718;28;20041;-76
2022/08/06 05:20:00;;;;;;;;;;;;;;;25.95;47.40;99220.59;5034794;28;20498;-77
2022/08/06 05:22:27;;;;;;;10.27;6.72;;;;;;;26.10;46.79;99216.13;5034458;28;19995;-77
2022/08/06 05:24:53;;;;;;;7.32;6.22;;;;;;;26.13;47.18;99215.56;5034410;28;20064;-76
2022/08/06 05:27:19;;;;;;;8.07;6.88;;;;;;;26.23;46.86;99223.56;5034542;28;20057;-77
2022/08/06 05:29:45;;;;;;;7.45;6.68;;;;;;;26.27;46.78;99219.19;5034380;28;20083;-77
2022/08/06 05:32:10;;;;;;;8.90;7.38;;;;;;;26.29;46.75;99204.25;5034349;28;20022;-77
2022/08/06 05:34:36;;;;;;;8.73;7.38;;;;;;;26.18;46.57;99185.72;5034421;28;20414;-77
2022/08/06 05:37:01;;;;;;;7.72;6.93;;;;;;;26.41;46.60;99211.19;5032942;28;20037;-77
2022/08/06 05:39:26;;;;;;;11.68;7.63;;;;;;;26.16;46.59;99160.84;5032964;28;20025;-76
2022/08/06 05:41:52;;;;;;;6.72;6.13;;;;;;;26.19;46.48;99169.19;5034171;28;20452;-77
2022/08/06 05:44:17;;;;;;;9.38;6.70;;;;;;;26.58;46.22;99214.22;5034200;28;20024;-77
2022/08/06 05:46:52;;;;;;;7.90;7.03;;;;;;;26.54;46.17;99205.88;5034106;28;20044;-77
2022/08/06 05:49:28;;;;;;;7.75;7.00;;;;;;;26.67;46.11;99215.16;5034059;28;20021;-76
2022/08/06 05:52:15;;;;;;;8.50;7.57;;;;;;;26.71;45.80;99210.78;5032736;28;20021;-77
2022/08/06 05:54:58;;;;;;;7.03;6.43;;;;;;;26.66;45.89;99212.75;5034223;28;20495;-77
2022/08/06 05:57:33;;;;;;;7.85;7.15;;;;;;;26.34;45.80;99154.69;5033846;28;20029;-76
2022/08/06 06:00:04;;;;;;;7.63;6.93;;;;;;;26.79;45.58;99218.28;5033829;28;20056;-77
2022/08/06 06:02:30;;;;;;;12.48;8.23;;;;;;;26.83;45.49;99211.19;5033670;28;20021;-77
2022/08/06 06:04:58;;;;;;;9.50;8.35;;;;;;;26.89;45.29;99214.63;5033507;28;20633;-77
2022/08/06 06:07:23;;;;;;;11.63;8.00;;;;;;;26.62;44.93;99174.63;5033667;28;20478;-77
2022/08/06 06:09:49;;;;;;;8.10;7.30;;;;;;;26.77;44.96;99195.28;5033683;28;20034;-77
2022/08/06 06:12:16;;;;;;;8.00;7.20;;;;;;;26.63;44.87;99159.97;5033533;28;20165;-77
2022/08/06 06:14:47;;;;;;;7.35;6.68;;;;;;;27.06;44.89;99212.22;5033371;28;20087;-77
2022/08/06 06:18:01;;;;;;;10.25;7.97;;;;;;;27.01;44.97;99203.38;5033250;28;20128;-77
2022/08/06 06:20:36;;;;;;;7.47;6.88;;;;;;;27.08;44.50;99210.03;5022879;28;20103;-76
2022/08/06 06:23:26;;;;;;;7.57;6.88;;;;;;;27.15;44.54;99209.66;5033216;28;20022;-77
2022/08/06 06:26:11;;;;;;;7.93;7.13;;;;;;;27.22;44.51;99210.88;5033025;28;20036;-77
2022/08/06 06:28:51;;;;;;;8.77;6.93;;;;;;;27.27;44.29;99206.47;5032569;28;20029;-77
2022/08/06 06:31:28;;;;;;;7.28;6.57;;;;;;;27.31;44.43;99216.44;5032913;28;20560;-76
2022/08/06 06:34:01;;;;;;;12.77;7.65;;;;;;;27.38;43.93;99210.63;5032787;28;20033;-77
2022/08/06 06:36:51;;;;;;;11.00;9.38;;;;;;;27.51;43.98;99215.31;5031584;28;20052;-77
2022/08/06 06:39:30;;;;;;;8.60;7.80;;;;;;;27.58;43.70;99215.75;5033022;28;20068;-77
2022/08/06 06:42:10;;;;;;;9.88;7.32;;;;;;;27.37;43.55;99162.94;5032927;28;20040;-77
2022/08/06 06:45:42;;;;;;;9.20;7.63;;;;;;;27.70;43.79;99199.03;5032803;28;20076;-77
2022/08/06 06:48:18;;;;;;;7.65;6.95;;;;;;;27.80;43.37;99198.84;4950006;29;20432;-77
2022/08/06 06:50:49;;;;;;;8.15;7.32;;;;;;;27.83;42.94;99195.53;4952395;29;20035;-77
2022/08/06 06:53:16;;;;;;;8.35;7.55;;;;;;;27.57;42.96;99146.34;5008257;28;20159;-77
2022/08/06 06:55:46;;;;;;;9.73;7.70;;;;;;;27.92;42.85;99190.19;5032482;28;20025;-77
2022/08/06 06:58:19;;;;;;;7.70;7.00;;;;;;;27.91;42.81;99186.69;5031266;28;20114;-77
2022/08/06 07:00:44;;;;;;;7.00;6.35;;;;;;;27.66;42.60;99144.56;5031087;28;20038;-77
2022/08/06 07:03:10;;;;;;;8.43;7.65;;;;;;;27.73;42.75;99147.69;5032604;28;20486;-77
2022/08/06 07:05:40;;;;;;;8.30;7.55;;;;;;;28.12;42.40;99181.66;5031319;28;20509;-77
2022/08/06 07:08:08;;;;;;;8.02;7.30;;;;;;;27.91;42.09;99131.63;5032384;28;20148;-77
2022/08/06 07:10:34;;;;;;;8.05;7.25;;;;;;;28.32;41.76;99181.31;5032396;28;20034;-76
2022/08/06 07:13:01;;;;;;;9.32;7.03;;;;;;;28.04;41.41;99128.09;5031029;28;20021;-77
2022/08/06 07:15:29;;;;;;;7.80;7.10;;;;;;;28.43;41.28;99162.88;5032319;28;20518;-77
2022/08/06 07:17:56;;;;;;;8.75;6.47;;;;;;;28.43;41.18;99158.25;5030846;28;20081;-77
2022/08/06 07:20:28;;;;;;;7.82;7.15;;;;;;;28.55;40.57;99165.88;5032205;28;20033;-77
2022/08/06 07:22:55;;;;;;;8.88;7.22;;;;;;;28.70;40.90;99173.69;5031030;28;20032;-77
2022/08/06 07:25:22;;;;;;;10.05;7.25;;;;;;;28.73;40.77;99162.19;5032005;28;20021;-77
2022/08/06 07:27:50;;;;;;;8.60;6.50;;;;;;;28.84;40.43;99156.56;5031891;28;20483;-76
2022/08/06 07:30:19;;;;;;;7.93;7.28;;;;;;;28.89;40.23;99157.25;5031684;28;20033;-77
2022/08/06 07:32:46;;;;;;;7.78;7.07;;;;;;;28.96;39.94;99160.31;5032206;28;20032;-77
2022/08/06 07:35:13;;;;;;;8.38;5.60;;;;;;;29.04;39.48;99166.97;5032035;28;20088;-77
2022/08/06 07:37:44;;;;;;;7.22;6.13;;;;;;;29.07;39.29;99161.72;5032017;28;20462;-77
2022/08/06 07:40:18;;;;;;;6.28;5.78;;;;;;;28.78;39.41;99107.72;5031081;28;20071;-77
2022/08/06 07:42:45;;;;;;;6.55;5.53;;;;;;;29.22;39.32;99167.88;5031783;28;20417;-77
2022/08/06 07:45:13;;;;;;;6.22;5.55;;;;;;;29.31;39.06;99168.75;5031850;28;20029;-77
2022/08/06 07:47:40;;;;;;;9.65;5.95;;;;;;;29.41;38.31;99176.66;5031621;28;20128;-77
2022/08/06 07:50:10;;;;;;;6.68;6.05;;;;;;;29.27;38.17;99135.13;5031384;28;20025;-77
2022/08/06 07:52:39;;;;;;;6.40;5.90;;;;;;;29.41;38.14;99141.28;5030380;28;20040;-77
2022/08/06 07:55:07;;;;;;;8.77;5.95;;;;;;;29.53;38.03;99146.97;5031764;28;20021;-77
2022/08/06 07:57:32;;;;;;;6.10;5.35;;;;;;;29.72;37.40;99161.16;5031695;28;20120;-77
2022/08/06 07:59:59;;;;;;;6.93;6.25;;;;;;;29.80;37.56;99156.91;5031705;28;20629;-77
2022/08/06 08:02:25;;;;;;;6.90;5.90;;;;;;;29.74;37.06;99125.50;5031561;28;20030;-76
2022/08/06 08:07:34;;;;;;;6.93;5.93;;;;;;;30.10;36.65;99157.19;5031651;28;20418;-77
2022/08/06 08:10:01;;;;;;;5.60;5.10;;;;;;;30.23;36.74;99165.22;5031480;28;20021;-77
2022/08/06 08:12:27;;;;;;;5.72;5.00;;;;;;;29.94;36.38;99092.25;5031157;28;20554;-76
2022/08/06 08:14:53;;;;;;;8.45;5.53;;;;;;;30.36;35.95;99150.66;5031215;28;20470;-77
2022/08/06 08:17:18;;;;;;;10.40;5.55;;;;;;;30.39;36.28;99148.44;5031184;28;20085;-77
2022/08/06 08:19:44;;;;;;;6.38;5.78;;;;;;;30.36;36.25;99144.41;5031246;28;20036;-77
2022/08/06 08:22:19;;;;;;;4.95;4.43;;;;;;;30.61;35.59;99151.06;5031230;28;20032;-77
2022/08/06 08:24:46;;;;;;;5.53;5.03;;;;;;;30.51;35.59;99118.66;5031074;28;20025;-77
2022/08/06 08:27:12;;;;;;;5.72;4.97;;;;;;;30.79;35.30;99149.16;5031374;28;20064;-77
2022/08/06 08:29:39;;;;;;;7.03;5.25;;;;;;;30.92;35.07;99148.97;5031306;28;20058;-77
2022/08/06 08:32:08;;;;;;;5.65;4.57;;;;;;;31.05;34.53;99149.13;5031385;28;20053;-77
2022/08/06 08:34:35;;;;;;;5.55;4.57;;;;;;;31.10;34.40;99138.06;5029991;28;20421;-77
2022/08/06 08:37:01;;;;;;;5.63;5.10;;;;;;;31.21;34.56;99136.63;5031230;28;20022;-77
2022/08/06 08:39:27;;;;;;;5.80;5.00;;;;;;;31.29;34.40;99135.81;5031163;28;20027;-77
2022/08/06 08:42:02;;;;;;;6.18;5.38;;;;;;;31.42;34.40;99140.28;5031129;28;20572;-77
2022/08/06 08:44:29;;;;;;;5.75;5.22;;;;;;;31.19;33.95;99087.06;5031242;28;20088;-77
2022/08/06 08:46:59;;;;;;;5.43;4.88;;;;;;;31.50;33.72;99103.19;5031071;28;20022;-77
2022/08/06 08:49:43;;;;;;;6.45;5.10;;;;;;;31.77;33.42;99127.34;5030856;28;20017;-77
2022/08/06 08:52:14;;;;;;;5.80;5.20;;;;;;;31.87;33.58;99134.34;5031572;28;20029;-77
2022/08/06 08:54:44;;;;;;;5.85;5.13;;;;;;;31.56;33.64;99078.13;5035013;28;20032;-77
2022/08/06 08:57:10;;;;;;;6.70;5.40;;;;;;;32.00;32.83;99118.91;5034990;28;20029;-77
2022/08/06 08:59:36;;;;;;;6.45;5.90;;;;;;;32.12;32.93;99124.44;5034811;28;20059;-77
2022/08/06 09:02:04;;;;;;;6.05;5.45;;;;;;;32.16;32.90;99128.91;5034845;28;20029;-77
2022/08/06 09:04:32;;;;;;;6.38;5.45;;;;;;;32.03;32.90;99080.81;5034767;28;20112;-77
2022/08/06 09:06:57;;;;;;;4.97;4.57;;;;;;;32.40;32.71;99108.38;5033376;28;20174;-77
2022/08/06 09:09:24;;;;;;;9.07;5.30;;;;;;;32.20;32.73;99050.63;5034918;28;20513;-77
2022/08/06 09:11:49;;;;;;;5.28;4.78;;;;;;;32.50;32.05;99066.97;5034606;28;20048;-77
2022/08/06 09:14:15;;;;;;;6.32;4.90;;;;;;;32.90;31.83;99100.13;5033320;28;20099;-77
2022/08/06 09:16:40;;;;;;;5.38;4.97;;;;;;;33.12;31.62;99104.41;5033202;28;20041;-77
2022/08/06 09:19:06;;;;;;;6.18;4.55;;;;;;;33.10;31.38;99109.41;5034344;28;20029;-77
2022/08/06 09:21:32;;;;;;;6.30;5.30;;;;;;;33.08;31.20;99076.13;5034377;28;20040;-77
2022/08/06 09:23:59;;;;;;;5.53;5.03;;;;;;;33.29;30.73;99079.59;5033175;28;20021;-77
2022/08/06 09:26:25;;;;;;;6.03;4.72;;;;;;;33.71;30.56;99095.88;5034537;28;20104;-77
2022/08/06 09:28:50;;;;;;;5.25;4.75;;;;;;;34.00;29.98;99098.38;5034656;28;20116;-77
2022/08/06 09:31:18;;;;;;;7.55;5.28;;;;;;;34.21;29.50;99102.94;5034353;28;20530;-77
2022/08/06 09:34:01;;;;;;;5.32;4.93;;;;;;;34.41;29.55;99082.81;5034108;28;20060;-77
2022/08/06 09:36:27;;;;;;;6.55;4.78;;;;;;;34.59;28.81;99077.84;5034262;28;20494;-77
2022/08/06 09:38:57;;;;;;;5.25;4.75;;;;;;;34.73;28.75;99087.28;5034134;28;20024;-77
2022/08/06 09:41:24;;;;;;;6.88;4.25;;;;;;;34.87;28.47;99088.84;5034095;28;20103;-77
2022/08/06 09:43:54;;;;;;;5.57;4.35;;;;;;;35.10;27.88;99083.59;5034230;28;20487;-77
2022/08/06 09:46:40;;;;;;;6.45;5.18;;;;;;;35.22;27.76;99078.03;5034294;28;20033;-77
2022/08/06 09:49:06;;;;;;;5.10;4.60;;;;;;;35.35;27.98;99071.34;5033975;28;20030;-77
2022/08/06 09:51:34;;;;;;;6.50;4.38;;;;;;;35.12;27.51;99015.44;5033952;28;20041;-77
2022/08/06 09:54:01;;;;;;;5.97;4.18;;;;;;;35.59;27.45;99059.38;5032640;28;20510;-77
2022/08/06 09:56:27;;;;;;;10.02;4.60;;;;;;;35.69;27.13;99067.09;5032441;28;20068;-77
2022/08/06 09:59:07;;;;;;;6.18;4.68;;;;;;;35.52;26.66;99020.75;5033709;28;20064;-77
2022/08/06 10:01:40;;;;;;;4.30;4.00;;;;;;;35.83;26.70;99052.91;5033739;28;20490;-77
2022/08/06 10:04:05;;;;;;;7.22;4.63;;;;;;;35.63;26.58;99022.59;5032853;28;20041;-77
2022/08/06 10:06:32;;;;;;;5.60;5.10;;;;;;;36.03;26.38;99060.06;5033850;28;20021;-77
2022/08/06 10:09:12;;;;;;;5.03;4.63;;;;;;;36.22;25.65;99054.56;5032265;28;20087;-77
2022/08/06 10:11:39;;;;;;;5.53;4.33;;;;;;;36.38;25.51;99048.25;5033830;28;20486;-77
2022/08/06 10:14:19;;;;;;;5.38;4.30;;;;;;;36.29;25.24;99008.00;5033406;28;20454;-77
2022/08/06 10:17:09;;;;;;;4.97;4.50;;;;;;;36.54;25.04;99003.03;5033364;28;20053;-77
2022/08/06 10:19:36;;;;;;;7.67;4.87;;;;;;;36.89;25.23;99048.91;5033408;28;20060;-77
2022/08/06 10:22:19;;;;;;;8.73;4.15;;;;;;;37.00;25.33;99030.63;5032292;28;20835;-77
2022/08/06 10:24:48;;;;;;;5.03;4.55;;;;;;;37.07;25.33;99029.94;5033380;28;20025;-77
2022/08/06 10:27:19;;;;;;;4.37;3.97;;;;;;;37.17;24.78;99021.91;5031935;28;20183;-77
2022/08/06 10:29:52;;;;;;;6.72;5.03;;;;;;;37.18;24.81;99030.94;5033111;28;20033;-77
2022/08/06 10:32:26;;;;;;;7.47;6.85;;;;;;;36.77;25.06;99010.53;5033147;28;20033;-77
2022/08/06 10:34:53;;;;;;;5.40;4.80;;;;;;;36.89;25.11;99007.63;5032949;28;20048;-77
2022/08/06 10:37:19;;;;;;;4.97;4.10;;;;;;;36.95;24.82;99021.88;5032968;28;20056;-77
2022/08/06 10:39:54;;;;;;;6.15;5.50;;;;;;;36.45;24.70;99024.47;5033124;28;20510;-77
2022/08/06 10:42:20;;;;;;;5.28;4.53;;;;;;;36.63;25.15;99030.31;5033023;28;20035;-77
2022/08/06 10:44:48;;;;;;;4.93;4.18;;;;;;;36.55;25.08;99020.31;5033106;28;20029;-77
2022/08/06 10:47:14;;;;;;;5.30;4.80;;;;;;;36.82;24.94;99021.25;5032853;28;20033;-77
2022/08/06 10:49:40;;;;;;;6.88;6.13;;;;;;;37.20;24.95;99018.41;5032916;28;20030;-77
2022/08/06 10:52:06;;;;;;;5.53;5.03;;;;;;;37.53;24.60;99015.03;5032823;28;20509;-77
2022/08/06 10:54:32;;;;;;;5.50;4.72;;;;;;;37.17;24.45;99010.88;5032777;28;20104;-77
2022/08/06 10:56:58;;;;;;;6.70;5.47;;;;;;;36.65;25.05;99018.94;5032668;28;20033;-77
2022/08/06 10:59:23;;;;;;;5.05;4.20;;;;;;;36.24;25.54;99016.53;5031351;28;20568;-77
2022/08/06 11:02:05;;;;;;;5.35;4.85;;;;;;;35.79;25.73;99013.56;5032556;28;20025;-77
2022/08/06 11:04:36;;;;;;;5.50;5.00;;;;;;;35.45;26.51;99004.13;5032551;28;20029;-77
2022/08/06 11:07:08;;;;;;;5.43;4.93;;;;;;;35.70;26.25;99002.78;5032410;28;20029;-77
2022/08/06 11:09:53;;;;;;;6.15;5.55;;;;;;;36.30;25.64;98997.81;5032337;28;20568;-77
2022/08/06 11:12:39;;;;;;;4.75;4.35;;;;;;;36.90;24.60;98990.75;5031792;28;20124;-77
2022/08/06 11:15:06;;;;;;;5.22;4.78;;;;;;;37.00;24.35;98996.78;5031271;28;20083;-77
2022/08/06 11:18:05;;;;;;;5.43;4.65;;;;;;;36.52;25.00;98993.56;5032143;28;20049;-77
2022/08/06 11:20:33;;;;;;;6.47;5.10;;;;;;;36.06;25.64;98990.63;5017205;28;20490;-77
2022/08/06 11:23:22;;;;;;;5.63;5.13;;;;;;;35.44;26.41;98934.69;5032218;28;20033;-77
2022/08/06 11:25:58;;;;;;;5.90;5.25;;;;;;;35.53;26.61;98976.47;5032118;28;20021;-77
2022/08/06 11:28:32;;;;;;;7.40;6.80;;;;;;;35.30;26.42;98992.78;5030816;28;20502;-77
2022/08/06 11:31:04;;;;;;;4.72;4.30;;;;;;;35.12;26.30;98968.78;5031904;28;20032;-77
2022/08/06 11:33:32;;;;;;;5.72;4.70;;;;;;;35.17;26.73;98977.56;5031966;28;20037;-77
2022/08/06 11:35:59;;;;;;;5.22;4.72;;;;;;;35.14;26.06;98928.88;5032000;28;20152;-77
2022/08/06 11:38:42;;;;;;;5.05;4.65;;;;;;;35.43;26.07;98981.72;5031852;28;20025;-77
2022/08/06 11:41:10;;;;;;;4.93;4.53;;;;;;;35.32;26.14;98984.22;5031726;28;20030;-77
2022/08/06 11:43:47;;;;;;;4.47;4.07;;;;;;;35.15;26.31;98988.09;5031854;28;20030;-77
2022/08/06 11:46:30;;;;;;;5.07;4.55;;;;;;;35.39;25.96;98981.63;5031809;28;20033;-77
2022/08/06 11:48:58;;;;;;;4.47;4.07;;;;;;;35.96;25.56;98986.50;5030529;28;20116;-77
2022/08/06 11:51:42;;;;;;;4.45;4.15;;;;;;;36.37;24.92;98995.19;5031837;28;20022;-77